sensor_id;sensor_type;location;lat;lon;timestamp;pressure;altitude;pressure_sealevel;temperature;humidity
8101;BME280;4093;53.470;9.832;2023-05-08T00:01:36;102399.13;;;12.35;77.61
8101;BME280;4093;53.470;9.832;2023-05-08T00:04:04;102393.06;;;12.44;76.17
8101;BME280;4093;53.470;9.832;2023-05-08T00:06:32;102402.63;;;12.71;75.60
8101;BME280;4093;53.470;9.832;2023-05-08T00:09:01;102397.44;;;13.02;75.28
8101;BME280;4093;53.470;9.832;2023-05-08T00:11:28;102387.91;;;12.59;75.99
8101;BME280;4093;53.470;9.832;2023-05-08T00:13:56;102387.81;;;12.07;77.29
8101;BME280;4093;53.470;9.832;2023-05-08T00:16:24;102386.91;;;11.96;76.58
8101;BME280;4093;53.470;9.832;2023-05-08T00:18:52;102390.50;;;12.65;75.21
8101;BME280;4093;53.470;9.832;2023-05-08T00:21:20;102380.94;;;12.24;76.03
8101;BME280;4093;53.470;9.832;2023-05-08T00:23:47;102382.66;;;12.16;75.63
8101;BME280;4093;53.470;9.832;2023-05-08T00:26:16;102376.66;;;12.40;74.37
8101;BME280;4093;53.470;9.832;2023-05-08T00:28:44;102373.94;;;11.85;76.61
8101;BME280;4093;53.470;9.832;2023-05-08T00:31:12;102381.81;;;12.25;75.99
8101;BME280;4093;53.470;9.832;2023-05-08T00:33:40;102378.31;;;12.04;75.33
8101;BME280;4093;53.470;9.832;2023-05-08T00:36:08;102373.09;;;11.95;75.68
8101;BME280;4093;53.470;9.832;2023-05-08T00:38:36;102370.50;;;11.88;74.60
8101;BME280;4093;53.470;9.832;2023-05-08T00:41:03;102381.84;;;12.49;74.28
8101;BME280;4093;53.470;9.832;2023-05-08T00:43:32;102380.13;;;12.42;73.44
8101;BME280;4093;53.470;9.832;2023-05-08T00:46:01;102376.56;;;12.00;74.08
8101;BME280;4093;53.470;9.832;2023-05-08T00:48:31;102369.72;;;12.25;73.50
8101;BME280;4093;53.470;9.832;2023-05-08T00:51:07;102321.19;;;11.78;73.00
8101;BME280;4093;53.470;9.832;2023-05-08T00:53:38;102373.19;;;12.38;72.48
8101;BME280;4093;53.470;9.832;2023-05-08T00:56:09;102385.28;;;12.33;73.12
8101;BME280;4093;53.470;9.832;2023-05-08T00:58:39;102386.16;;;12.35;72.88
8101;BME280;4093;53.470;9.832;2023-05-08T01:01:07;102383.50;;;12.11;73.16
8101;BME280;4093;53.470;9.832;2023-05-08T01:03:35;102391.38;;;12.61;71.45
8101;BME280;4093;53.470;9.832;2023-05-08T01:06:04;102393.06;;;12.19;72.69
8101;BME280;4093;53.470;9.832;2023-05-08T01:08:32;102392.19;;;12.28;71.86
8101;BME280;4093;53.470;9.832;2023-05-08T01:11:08;102393.13;;;12.58;70.51
8101;BME280;4093;53.470;9.832;2023-05-08T01:13:48;102399.09;;;12.14;72.87
8101;BME280;4093;53.470;9.832;2023-05-08T01:16:22;102403.47;;;12.53;70.90
8101;BME280;4093;53.470;9.832;2023-05-08T01:19:01;102399.19;;;12.57;71.01
8101;BME280;4093;53.470;9.832;2023-05-08T01:21:34;102393.97;;;12.52;71.19
8101;BME280;4093;53.470;9.832;2023-05-08T01:27:34;102397.38;;;12.20;72.38
8101;BME280;4093;53.470;9.832;2023-05-08T01:33:01;102396.94;;;11.33;75.75
8101;BME280;4093;53.470;9.832;2023-05-08T01:35:42;102392.75;;;11.53;74.69
8101;BME280;4093;53.470;9.832;2023-05-08T01:38:16;102398.88;;;11.69;74.26
8101;BME280;4093;53.470;9.832;2023-05-08T01:40:51;102367.44;;;11.06;76.01
8101;BME280;4093;53.470;9.832;2023-05-08T01:43:25;102388.31;;;11.34;75.66
8101;BME280;4093;53.470;9.832;2023-05-08T01:45:56;102394.53;;;11.68;74.30
8101;BME280;4093;53.470;9.832;2023-05-08T01:48:33;102380.84;;;11.86;73.76
8101;BME280;4093;53.470;9.832;2023-05-08T01:51:04;102401.72;;;12.34;72.52
8101;BME280;4093;53.470;9.832;2023-05-08T01:53:36;102403.47;;;12.32;72.71
8101;BME280;4093;53.470;9.832;2023-05-08T01:56:08;102399.00;;;11.94;72.51
8101;BME280;4093;53.470;9.832;2023-05-08T01:58:38;102398.00;;;11.70;73.96
8101;BME280;4093;53.470;9.832;2023-05-08T02:01:06;102405.63;;;11.43;74.88
8101;BME280;4093;53.470;9.832;2023-05-08T02:03:37;102402.66;;;10.87;77.45
8101;BME280;4093;53.470;9.832;2023-05-08T02:06:08;102410.06;;;11.65;75.02
8101;BME280;4093;53.470;9.832;2023-05-08T02:08:36;102403.16;;;11.64;75.59
8101;BME280;4093;53.470;9.832;2023-05-08T02:11:04;102397.56;;;11.00;77.04
8101;BME280;4093;53.470;9.832;2023-05-08T02:13:34;102411.63;;;11.35;76.63
8101;BME280;4093;53.470;9.832;2023-05-08T02:16:03;102404.31;;;10.79;77.87
8101;BME280;4093;53.470;9.832;2023-05-08T02:18:33;102415.75;;;11.07;77.16
8101;BME280;4093;53.470;9.832;2023-05-08T02:21:04;102407.13;;;11.07;78.02
8101;BME280;4093;53.470;9.832;2023-05-08T02:23:33;102406.44;;;11.32;76.29
8101;BME280;4093;53.470;9.832;2023-05-08T02:26:02;102402.97;;;11.30;76.24
8101;BME280;4093;53.470;9.832;2023-05-08T02:28:31;102399.66;;;11.56;75.59
8101;BME280;4093;53.470;9.832;2023-05-08T02:31:00;102400.28;;;11.14;76.66
8101;BME280;4093;53.470;9.832;2023-05-08T02:33:28;102392.25;;;10.78;77.34
8101;BME280;4093;53.470;9.832;2023-05-08T02:35:57;102406.13;;;10.93;78.24
8101;BME280;4093;53.470;9.832;2023-05-08T02:38:28;102408.91;;;11.13;77.18
8101;BME280;4093;53.470;9.832;2023-05-08T02:40:59;102400.94;;;10.89;78.33
8101;BME280;4093;53.470;9.832;2023-05-08T02:43:28;102400.94;;;10.88;77.60
8101;BME280;4093;53.470;9.832;2023-05-08T02:46:01;102394.41;;;10.37;79.60
8101;BME280;4093;53.470;9.832;2023-05-08T02:48:34;102397.22;;;10.57;79.18
8101;BME280;4093;53.470;9.832;2023-05-08T02:51:18;102398.72;;;10.36;79.05
8101;BME280;4093;53.470;9.832;2023-05-08T02:53:54;102407.88;;;10.97;78.47
8101;BME280;4093;53.470;9.832;2023-05-08T02:56:30;102407.19;;;11.18;77.37
8101;BME280;4093;53.470;9.832;2023-05-08T02:59:06;102390.47;;;10.77;78.24
8101;BME280;4093;53.470;9.832;2023-05-08T03:01:43;102394.53;;;10.49;78.98
8101;BME280;4093;53.470;9.832;2023-05-08T03:04:21;102392.50;;;10.19;80.40
8101;BME280;4093;53.470;9.832;2023-05-08T03:06:52;102405.94;;;10.70;79.23
8101;BME280;4093;53.470;9.832;2023-05-08T03:09:25;102395.41;;;10.48;79.16
8101;BME280;4093;53.470;9.832;2023-05-08T03:11:59;102393.78;;;10.58;78.09
8101;BME280;4093;53.470;9.832;2023-05-08T03:14:31;102395.47;;;10.56;78.98
8101;BME280;4093;53.470;9.832;2023-05-08T03:17:05;102391.56;;;10.14;80.82
8101;BME280;4093;53.470;9.832;2023-05-08T03:19:36;102396.00;;;10.26;80.20
8101;BME280;4093;53.470;9.832;2023-05-08T03:22:06;102396.06;;;10.29;80.48
8101;BME280;4093;53.470;9.832;2023-05-08T03:24:37;102386.50;;;10.23;80.00
8101;BME280;4093;53.470;9.832;2023-05-08T03:27:07;102398.66;;;10.30;79.85
8101;BME280;4093;53.470;9.832;2023-05-08T03:29:37;102402.75;;;10.13;81.07
8101;BME280;4093;53.470;9.832;2023-05-08T03:32:06;102410.00;;;10.41;79.54
8101;BME280;4093;53.470;9.832;2023-05-08T03:34:34;102405.28;;;10.07;80.80
8101;BME280;4093;53.470;9.832;2023-05-08T03:37:02;102396.25;;;9.74;81.63
8101;BME280;4093;53.470;9.832;2023-05-08T03:39:30;102412.31;;;10.20;81.24
8101;BME280;4093;53.470;9.832;2023-05-08T03:41:59;102407.66;;;10.66;80.00
8101;BME280;4093;53.470;9.832;2023-05-08T03:44:27;102405.41;;;10.19;80.22
8101;BME280;4093;53.470;9.832;2023-05-08T03:46:57;102411.41;;;11.05;77.65
8101;BME280;4093;53.470;9.832;2023-05-08T03:49:25;102398.34;;;10.88;77.46
8101;BME280;4093;53.470;9.832;2023-05-08T03:51:56;102400.91;;;10.85;77.16
8101;BME280;4093;53.470;9.832;2023-05-08T03:54:24;102410.31;;;10.75;78.06
8101;BME280;4093;53.470;9.832;2023-05-08T03:56:53;102403.09;;;10.40;78.00
8101;BME280;4093;53.470;9.832;2023-05-08T03:59:29;102408.03;;;9.55;82.51
8101;BME280;4093;53.470;9.832;2023-05-08T04:02:08;102405.91;;;9.89;81.88
8101;BME280;4093;53.470;9.832;2023-05-08T04:04:39;102396.56;;;9.97;80.83
8101;BME280;4093;53.470;9.832;2023-05-08T04:07:11;102408.06;;;10.25;79.81
8101;BME280;4093;53.470;9.832;2023-05-08T04:09:43;102364.06;;;9.49;82.25
8101;BME280;4093;53.470;9.832;2023-05-08T04:12:19;102407.72;;;9.96;82.28
8101;BME280;4093;53.470;9.832;2023-05-08T04:14:51;102404.28;;;9.95;81.28
8101;BME280;4093;53.470;9.832;2023-05-08T04:17:27;102404.28;;;9.95;81.07
8101;BME280;4093;53.470;9.832;2023-05-08T04:20:02;102402.53;;;9.96;80.83
8101;BME280;4093;53.470;9.832;2023-05-08T04:22:32;102400.88;;;10.00;80.95
8101;BME280;4093;53.470;9.832;2023-05-08T04:25:02;102399.94;;;9.91;81.86
8101;BME280;4093;53.470;9.832;2023-05-08T04:27:30;102388.66;;;9.86;81.52
8101;BME280;4093;53.470;9.832;2023-05-08T04:30:00;102389.50;;;9.85;81.28
8101;BME280;4093;53.470;9.832;2023-05-08T04:32:29;102389.16;;;9.58;82.51
8101;BME280;4093;53.470;9.832;2023-05-08T04:34:59;102393.94;;;9.94;81.90
8101;BME280;4093;53.470;9.832;2023-05-08T04:37:28;102394.00;;;10.02;81.20
8101;BME280;4093;53.470;9.832;2023-05-08T04:39:57;102395.81;;;10.07;81.07
8101;BME280;4093;53.470;9.832;2023-05-08T04:42:25;102356.69;;;9.75;81.59
8101;BME280;4093;53.470;9.832;2023-05-08T04:44:53;102386.78;;;10.48;80.76
8101;BME280;4093;53.470;9.832;2023-05-08T04:47:22;102379.81;;;10.42;79.82
8101;BME280;4093;53.470;9.832;2023-05-08T04:49:50;102377.63;;;10.85;77.64
8101;BME280;4093;53.470;9.832;2023-05-08T04:52:18;102377.88;;;10.24;79.73
8101;BME280;4093;53.470;9.832;2023-05-08T04:54:46;102379.41;;;10.97;78.06
8101;BME280;4093;53.470;9.832;2023-05-08T04:57:13;102380.28;;;10.96;78.43
8101;BME280;4093;53.470;9.832;2023-05-08T04:59:41;102362.78;;;13.33;70.09
8101;BME280;4093;53.470;9.832;2023-05-08T05:02:09;102354.03;;;13.60;67.04
8101;BME280;4093;53.470;9.832;2023-05-08T05:04:38;102352.41;;;13.30;67.95
8101;BME280;4093;53.470;9.832;2023-05-08T05:07:05;102357.06;;;14.42;65.38
8101;BME280;4093;53.470;9.832;2023-05-08T05:09:33;102351.84;;;15.39;61.62
8101;BME280;4093;53.470;9.832;2023-05-08T05:12:02;102349.47;;;16.49;59.21
8101;BME280;4093;53.470;9.832;2023-05-08T05:14:30;102355.25;;;15.41;60.43
8101;BME280;4093;53.470;9.832;2023-05-08T05:16:57;102347.44;;;14.53;62.63
8101;BME280;4093;53.470;9.832;2023-05-08T05:19:25;102350.03;;;14.53;63.12
8101;BME280;4093;53.470;9.832;2023-05-08T05:21:54;102359.25;;;16.36;57.79
8101;BME280;4093;53.470;9.832;2023-05-08T05:24:22;102354.56;;;16.00;58.69
8101;BME280;4093;53.470;9.832;2023-05-08T05:26:50;102352.19;;;16.43;58.87
8101;BME280;4093;53.470;9.832;2023-05-08T05:29:17;102342.09;;;16.20;58.79
8101;BME280;4093;53.470;9.832;2023-05-08T05:31:45;102347.22;;;17.28;56.00
8101;BME280;4093;53.470;9.832;2023-05-08T05:34:13;102346.44;;;16.19;58.53
8101;BME280;4093;53.470;9.832;2023-05-08T05:36:40;102332.81;;;17.51;54.60
8101;BME280;4093;53.470;9.832;2023-05-08T05:39:09;102335.63;;;16.95;56.89
8101;BME280;4093;53.470;9.832;2023-05-08T05:41:37;102335.56;;;17.45;55.05
8101;BME280;4093;53.470;9.832;2023-05-08T05:44:05;102329.09;;;16.71;55.81
8101;BME280;4093;53.470;9.832;2023-05-08T05:46:33;102338.81;;;16.06;58.71
8101;BME280;4093;53.470;9.832;2023-05-08T05:49:00;102327.19;;;19.45;51.39
8101;BME280;4093;53.470;9.832;2023-05-08T05:51:28;102318.63;;;17.63;53.26
8101;BME280;4093;53.470;9.832;2023-05-08T05:53:56;102333.75;;;17.03;56.59
8101;BME280;4093;53.470;9.832;2023-05-08T05:56:25;102334.16;;;18.11;54.33
8101;BME280;4093;53.470;9.832;2023-05-08T05:58:53;102347.91;;;16.39;56.42
8101;BME280;4093;53.470;9.832;2023-05-08T06:01:21;102344.41;;;16.38;57.08
8101;BME280;4093;53.470;9.832;2023-05-08T06:03:49;102348.91;;;17.74;55.25
8101;BME280;4093;53.470;9.832;2023-05-08T06:06:17;102349.69;;;18.18;52.84
8101;BME280;4093;53.470;9.832;2023-05-08T06:08:45;102344.19;;;17.48;55.60
8101;BME280;4093;53.470;9.832;2023-05-08T06:11:13;102337.47;;;17.80;55.45
8101;BME280;4093;53.470;9.832;2023-05-08T06:13:42;102333.63;;;17.95;53.29
8101;BME280;4093;53.470;9.832;2023-05-08T06:16:10;102336.31;;;18.31;53.38
8101;BME280;4093;53.470;9.832;2023-05-08T06:18:38;102325.22;;;17.39;55.24
8101;BME280;4093;53.470;9.832;2023-05-08T06:21:06;102325.84;;;18.31;53.66
8101;BME280;4093;53.470;9.832;2023-05-08T06:23:33;102329.25;;;17.97;53.75
8101;BME280;4093;53.470;9.832;2023-05-08T06:26:01;102343.00;;;16.70;57.27
8101;BME280;4093;53.470;9.832;2023-05-08T06:28:29;102340.53;;;16.62;57.25
8101;BME280;4093;53.470;9.832;2023-05-08T06:30:58;102341.22;;;15.55;59.78
8101;BME280;4093;53.470;9.832;2023-05-08T06:33:26;102351.59;;;14.74;62.06
8101;BME280;4093;53.470;9.832;2023-05-08T06:35:53;102358.13;;;14.10;64.02
8101;BME280;4093;53.470;9.832;2023-05-08T06:38:21;102338.91;;;14.33;63.85
8101;BME280;4093;53.470;9.832;2023-05-08T06:40:49;102365.63;;;14.56;64.11
8101;BME280;4093;53.470;9.832;2023-05-08T06:43:16;102368.16;;;14.66;63.82
8101;BME280;4093;53.470;9.832;2023-05-08T06:45:44;102373.25;;;14.81;63.06
8101;BME280;4093;53.470;9.832;2023-05-08T06:48:13;102383.78;;;15.58;60.98
8101;BME280;4093;53.470;9.832;2023-05-08T06:50:41;102368.69;;;15.86;60.91
8101;BME280;4093;53.470;9.832;2023-05-08T06:53:08;102371.84;;;16.07;59.95
8101;BME280;4093;53.470;9.832;2023-05-08T06:55:36;102359.38;;;18.52;55.47
8101;BME280;4093;53.470;9.832;2023-05-08T06:58:04;102349.91;;;19.46;52.08
8101;BME280;4093;53.470;9.832;2023-05-08T07:00:32;102345.22;;;17.43;54.37
8101;BME280;4093;53.470;9.832;2023-05-08T07:02:59;102347.31;;;18.81;53.62
8101;BME280;4093;53.470;9.832;2023-05-08T07:05:28;102336.31;;;17.92;54.76
8101;BME280;4093;53.470;9.832;2023-05-08T07:07:56;102326.72;;;18.65;52.52
8101;BME280;4093;53.470;9.832;2023-05-08T07:10:23;102332.78;;;19.94;51.24
8101;BME280;4093;53.470;9.832;2023-05-08T07:12:51;102331.13;;;18.99;53.06
8101;BME280;4093;53.470;9.832;2023-05-08T07:15:19;102328.19;;;19.10;53.12
8101;BME280;4093;53.470;9.832;2023-05-08T07:17:52;102331.72;;;18.03;54.59
8101;BME280;4093;53.470;9.832;2023-05-08T07:20:20;102332.56;;;20.28;51.52
8101;BME280;4093;53.470;9.832;2023-05-08T07:22:50;102315.38;;;21.44;46.99
8101;BME280;4093;53.470;9.832;2023-05-08T07:25:18;102318.25;;;19.82;50.68
8101;BME280;4093;53.470;9.832;2023-05-08T07:27:46;102318.00;;;20.71;49.67
8101;BME280;4093;53.470;9.832;2023-05-08T07:30:14;102317.03;;;20.20;49.22
8101;BME280;4093;53.470;9.832;2023-05-08T07:32:42;102317.00;;;20.22;49.40
8101;BME280;4093;53.470;9.832;2023-05-08T07:35:10;102316.28;;;19.88;51.81
8101;BME280;4093;53.470;9.832;2023-05-08T07:37:38;102316.47;;;20.65;49.39
8101;BME280;4093;53.470;9.832;2023-05-08T07:40:08;102309.34;;;20.92;48.92
8101;BME280;4093;53.470;9.832;2023-05-08T07:42:39;102306.53;;;21.47;48.07
8101;BME280;4093;53.470;9.832;2023-05-08T07:45:08;102318.59;;;20.54;49.43
8101;BME280;4093;53.470;9.832;2023-05-08T07:47:37;102324.16;;;17.49;55.76
8101;BME280;4093;53.470;9.832;2023-05-08T07:50:05;102331.53;;;18.84;53.72
8101;BME280;4093;53.470;9.832;2023-05-08T07:52:33;102322.34;;;19.00;52.38
8101;BME280;4093;53.470;9.832;2023-05-08T07:55:01;102318.00;;;20.44;51.05
8101;BME280;4093;53.470;9.832;2023-05-08T07:57:36;102314.31;;;19.67;52.84
8101;BME280;4093;53.470;9.832;2023-05-08T08:00:07;102301.91;;;20.28;50.71
8101;BME280;4093;53.470;9.832;2023-05-08T08:02:35;102297.25;;;19.82;51.61
8101;BME280;4093;53.470;9.832;2023-05-08T08:05:03;102308.31;;;19.01;54.14
8101;BME280;4093;53.470;9.832;2023-05-08T08:07:31;102309.63;;;17.77;56.24
8101;BME280;4093;53.470;9.832;2023-05-08T08:09:59;102314.78;;;16.94;58.65
8101;BME280;4093;53.470;9.832;2023-05-08T08:12:27;102327.97;;;17.32;59.08
8101;BME280;4093;53.470;9.832;2023-05-08T08:14:57;102307.78;;;17.39;58.28
8101;BME280;4093;53.470;9.832;2023-05-08T08:17:25;102315.91;;;19.43;54.15
8101;BME280;4093;53.470;9.832;2023-05-08T08:19:54;102301.22;;;21.23;49.14
8101;BME280;4093;53.470;9.832;2023-05-08T08:22:22;102309.66;;;20.05;52.39
8101;BME280;4093;53.470;9.832;2023-05-08T08:24:50;102298.88;;;19.86;52.68
8101;BME280;4093;53.470;9.832;2023-05-08T08:27:20;102314.16;;;17.68;57.50
8101;BME280;4093;53.470;9.832;2023-05-08T08:29:48;102305.41;;;16.82;59.05
8101;BME280;4093;53.470;9.832;2023-05-08T08:32:25;102324.31;;;16.43;60.68
8101;BME280;4093;53.470;9.832;2023-05-08T08:34:53;102313.53;;;16.65;59.79
8101;BME280;4093;53.470;9.832;2023-05-08T08:37:20;102318.66;;;16.15;61.96
8101;BME280;4093;53.470;9.832;2023-05-08T08:39:49;102323.31;;;16.52;61.36
8101;BME280;4093;53.470;9.832;2023-05-08T08:42:16;102331.00;;;16.60;60.81
8101;BME280;4093;53.470;9.832;2023-05-08T08:44:44;102327.63;;;15.99;62.60
8101;BME280;4093;53.470;9.832;2023-05-08T08:47:15;102304.56;;;15.70;63.65
8101;BME280;4093;53.470;9.832;2023-05-08T08:49:47;102318.50;;;16.26;62.75
8101;BME280;4093;53.470;9.832;2023-05-08T08:52:25;102324.66;;;16.75;60.57
8101;BME280;4093;53.470;9.832;2023-05-08T08:54:56;102318.31;;;16.38;62.14
8101;BME280;4093;53.470;9.832;2023-05-08T08:57:27;102326.53;;;16.66;61.45
8101;BME280;4093;53.470;9.832;2023-05-08T09:00:00;102340.94;;;16.39;61.94
8101;BME280;4093;53.470;9.832;2023-05-08T09:02:31;102338.81;;;17.98;58.21
8101;BME280;4093;53.470;9.832;2023-05-08T09:05:00;102332.91;;;18.97;56.05
8101;BME280;4093;53.470;9.832;2023-05-08T09:07:29;102336.16;;;19.68;54.54
8101;BME280;4093;53.470;9.832;2023-05-08T09:09:57;102330.66;;;19.16;56.07
8101;BME280;4093;53.470;9.832;2023-05-08T09:12:26;102316.94;;;19.37;54.40
8101;BME280;4093;53.470;9.832;2023-05-08T09:14:53;102320.84;;;19.52;54.16
8101;BME280;4093;53.470;9.832;2023-05-08T09:17:21;102310.94;;;19.01;55.66
8101;BME280;4093;53.470;9.832;2023-05-08T09:19:50;102305.84;;;18.62;55.65
8101;BME280;4093;53.470;9.832;2023-05-08T09:22:20;102320.53;;;18.68;56.74
8101;BME280;4093;53.470;9.832;2023-05-08T09:24:56;102317.78;;;16.69;59.70
8101;BME280;4093;53.470;9.832;2023-05-08T09:27:25;102322.66;;;17.35;59.04
8101;BME280;4093;53.470;9.832;2023-05-08T09:30:01;102321.84;;;18.14;57.46
8101;BME280;4093;53.470;9.832;2023-05-08T09:32:30;102319.69;;;18.32;57.89
8101;BME280;4093;53.470;9.832;2023-05-08T09:34:58;102320.97;;;18.85;56.15
8101;BME280;4093;53.470;9.832;2023-05-08T09:37:28;102320.06;;;19.49;56.85
8101;BME280;4093;53.470;9.832;2023-05-08T09:40:12;102305.50;;;19.09;56.20
8101;BME280;4093;53.470;9.832;2023-05-08T09:42:40;102309.00;;;18.05;58.23
8101;BME280;4093;53.470;9.832;2023-05-08T09:45:09;102305.00;;;17.89;57.21
8101;BME280;4093;53.470;9.832;2023-05-08T09:47:37;102303.97;;;17.55;57.60
8101;BME280;4093;53.470;9.832;2023-05-08T09:50:07;102317.22;;;17.88;58.45
8101;BME280;4093;53.470;9.832;2023-05-08T09:52:37;102317.63;;;18.44;57.68
8101;BME280;4093;53.470;9.832;2023-05-08T09:56:28;102303.78;;;18.03;56.85
8101;BME280;4093;53.470;9.832;2023-05-08T09:58:55;102267.00;;;17.30;57.64
8101;BME280;4093;53.470;9.832;2023-05-08T10:01:27;102293.00;;;18.86;55.46
8101;BME280;4093;53.470;9.832;2023-05-08T10:03:56;102300.84;;;18.87;56.17
8101;BME280;4093;53.470;9.832;2023-05-08T10:06:24;102297.03;;;18.99;55.11
8101;BME280;4093;53.470;9.832;2023-05-08T10:09:09;102294.56;;;19.83;53.90
8101;BME280;4093;53.470;9.832;2023-05-08T10:11:39;102287.78;;;19.76;54.90
8101;BME280;4093;53.470;9.832;2023-05-08T10:14:07;102282.06;;;19.34;54.80
8101;BME280;4093;53.470;9.832;2023-05-08T10:16:39;102284.34;;;20.02;53.53
8101;BME280;4093;53.470;9.832;2023-05-08T10:19:12;102289.75;;;19.40;55.94
8101;BME280;4093;53.470;9.832;2023-05-08T10:21:42;102282.59;;;18.83;54.21
8101;BME280;4093;53.470;9.832;2023-05-08T10:24:15;102282.59;;;19.14;53.82
8101;BME280;4093;53.470;9.832;2023-05-08T10:26:51;102278.03;;;18.57;55.73
8101;BME280;4093;53.470;9.832;2023-05-08T10:29:32;102284.69;;;19.34;55.48
8101;BME280;4093;53.470;9.832;2023-05-08T10:32:01;102268.09;;;19.02;54.80
8101;BME280;4093;53.470;9.832;2023-05-08T10:34:30;102284.91;;;19.56;53.62
8101;BME280;4093;53.470;9.832;2023-05-08T10:36:59;102279.75;;;19.53;54.05
8101;BME280;4093;53.470;9.832;2023-05-08T10:39:27;102262.59;;;19.71;52.96
8101;BME280;4093;53.470;9.832;2023-05-08T10:41:57;102275.06;;;19.03;54.20
8101;BME280;4093;53.470;9.832;2023-05-08T10:44:26;102264.84;;;19.53;53.30
8101;BME280;4093;53.470;9.832;2023-05-08T10:47:00;102252.09;;;20.24;52.55
8101;BME280;4093;53.470;9.832;2023-05-08T10:49:39;102249.13;;;19.81;52.87
8101;BME280;4093;53.470;9.832;2023-05-08T10:52:15;102245.56;;;19.54;53.44
8101;BME280;4093;53.470;9.832;2023-05-08T10:55:08;102261.94;;;18.02;55.01
8101;BME280;4093;53.470;9.832;2023-05-08T10:57:40;102251.97;;;18.52;54.97
8101;BME280;4093;53.470;9.832;2023-05-08T11:00:08;102256.72;;;19.61;53.37
8101;BME280;4093;53.470;9.832;2023-05-08T11:02:36;102256.63;;;19.06;53.60
8101;BME280;4093;53.470;9.832;2023-05-08T11:05:13;102262.19;;;19.25;53.01
8101;BME280;4093;53.470;9.832;2023-05-08T11:07:54;102257.94;;;19.51;54.03
8101;BME280;4093;53.470;9.832;2023-05-08T11:10:29;102247.25;;;20.38;51.71
8101;BME280;4093;53.470;9.832;2023-05-08T11:12:59;102252.41;;;19.30;52.40
8101;BME280;4093;53.470;9.832;2023-05-08T11:15:34;102214.00;;;18.98;53.87
8101;BME280;4093;53.470;9.832;2023-05-08T11:18:03;102230.38;;;19.36;52.84
8101;BME280;4093;53.470;9.832;2023-05-08T11:20:39;102232.44;;;19.54;50.62
8101;BME280;4093;53.470;9.832;2023-05-08T11:23:23;102238.16;;;19.39;51.42
8101;BME280;4093;53.470;9.832;2023-05-08T11:25:59;102233.75;;;19.97;49.98
8101;BME280;4093;53.470;9.832;2023-05-08T11:28:32;102219.91;;;19.66;49.52
8101;BME280;4093;53.470;9.832;2023-05-08T11:31:02;102217.72;;;19.50;49.22
8101;BME280;4093;53.470;9.832;2023-05-08T11:33:31;102213.13;;;19.85;48.56
8101;BME280;4093;53.470;9.832;2023-05-08T11:36:11;102210.75;;;19.49;49.03
8101;BME280;4093;53.470;9.832;2023-05-08T11:38:39;102214.38;;;20.53;47.30
8101;BME280;4093;53.470;9.832;2023-05-08T11:41:09;102215.97;;;20.30;46.88
8101;BME280;4093;53.470;9.832;2023-05-08T11:46:43;102200.63;;;19.93;45.19
8101;BME280;4093;53.470;9.832;2023-05-08T11:49:16;102214.91;;;20.36;46.30
8101;BME280;4093;53.470;9.832;2023-05-08T11:51:51;102218.59;;;19.79;45.83
8101;BME280;4093;53.470;9.832;2023-05-08T11:54:21;102213.41;;;20.29;46.22
8101;BME280;4093;53.470;9.832;2023-05-08T11:56:50;102216.97;;;20.01;45.41
8101;BME280;4093;53.470;9.832;2023-05-08T11:59:22;102204.03;;;20.95;44.53
8101;BME280;4093;53.470;9.832;2023-05-08T12:01:51;102201.16;;;20.54;45.13
8101;BME280;4093;53.470;9.832;2023-05-08T12:04:21;102203.41;;;20.40;45.74
8101;BME280;4093;53.470;9.832;2023-05-08T12:06:56;102202.34;;;19.94;45.98
8101;BME280;4093;53.470;9.832;2023-05-08T12:09:24;102213.66;;;20.46;46.55
8101;BME280;4093;53.470;9.832;2023-05-08T12:11:56;102212.53;;;20.03;46.47
8101;BME280;4093;53.470;9.832;2023-05-08T12:14:24;102196.91;;;20.50;46.14
8101;BME280;4093;53.470;9.832;2023-05-08T12:16:53;102198.16;;;20.89;45.23
8101;BME280;4093;53.470;9.832;2023-05-08T12:19:21;102189.50;;;20.37;44.42
8101;BME280;4093;53.470;9.832;2023-05-08T12:21:48;102198.56;;;20.28;44.83
8101;BME280;4093;53.470;9.832;2023-05-08T12:24:16;102202.78;;;21.29;44.11
8101;BME280;4093;53.470;9.832;2023-05-08T12:26:48;102184.50;;;21.24;45.39
8101;BME280;4093;53.470;9.832;2023-05-08T12:29:17;102197.91;;;21.42;43.98
8101;BME280;4093;53.470;9.832;2023-05-08T12:31:46;102187.47;;;21.40;45.85
8101;BME280;4093;53.470;9.832;2023-05-08T12:34:16;102191.34;;;21.74;45.21
8101;BME280;4093;53.470;9.832;2023-05-08T12:36:43;102194.50;;;21.16;43.67
8101;BME280;4093;53.470;9.832;2023-05-08T12:39:12;102188.94;;;20.77;44.22
8101;BME280;4093;53.470;9.832;2023-05-08T12:41:41;102188.50;;;20.41;44.38
8101;BME280;4093;53.470;9.832;2023-05-08T12:44:16;102196.28;;;21.16;44.41
8101;BME280;4093;53.470;9.832;2023-05-08T12:46:48;102199.31;;;21.51;42.79
8101;BME280;4093;53.470;9.832;2023-05-08T12:49:26;102186.13;;;21.29;42.49
8101;BME280;4093;53.470;9.832;2023-05-08T12:52:02;102181.16;;;21.21;43.83
8101;BME280;4093;53.470;9.832;2023-05-08T12:54:31;102185.09;;;20.87;44.10
8101;BME280;4093;53.470;9.832;2023-05-08T12:56:59;102191.47;;;20.80;45.04
8101;BME280;4093;53.470;9.832;2023-05-08T12:59:27;102188.03;;;21.01;43.79
8101;BME280;4093;53.470;9.832;2023-05-08T13:01:55;102192.38;;;21.92;44.00
8101;BME280;4093;53.470;9.832;2023-05-08T13:04:23;102178.38;;;21.47;43.65
8101;BME280;4093;53.470;9.832;2023-05-08T13:06:56;102167.56;;;20.86;44.64
8101;BME280;4093;53.470;9.832;2023-05-08T13:09:23;102193.91;;;21.08;43.27
8101;BME280;4093;53.470;9.832;2023-05-08T13:11:51;102189.03;;;21.21;44.06
8101;BME280;4093;53.470;9.832;2023-05-08T13:14:19;102197.63;;;21.26;44.91
8101;BME280;4093;53.470;9.832;2023-05-08T13:16:46;102177.16;;;21.11;44.16
8101;BME280;4093;53.470;9.832;2023-05-08T13:19:14;102200.00;;;21.32;45.25
8101;BME280;4093;53.470;9.832;2023-05-08T13:21:43;102175.00;;;21.66;45.24
8101;BME280;4093;53.470;9.832;2023-05-08T13:24:14;102167.25;;;21.41;43.66
8101;BME280;4093;53.470;9.832;2023-05-08T13:26:41;102177.63;;;21.22;44.85
8101;BME280;4093;53.470;9.832;2023-05-08T13:29:09;102174.88;;;21.25;44.80
8101;BME280;4093;53.470;9.832;2023-05-08T13:31:37;102178.13;;;21.08;44.72
8101;BME280;4093;53.470;9.832;2023-05-08T13:34:04;102171.34;;;21.48;44.25
8101;BME280;4093;53.470;9.832;2023-05-08T13:36:32;102165.84;;;21.54;44.38
8101;BME280;4093;53.470;9.832;2023-05-08T13:39:00;102160.47;;;20.65;46.05